sensor_id;sensor_type;location;lat;lon;timestamp;P1;durP1;ratioP1;P2;durP2;ratioP2
31095;SDS011;17749;51.962;8.560;2022-10-17T10:10:46;3.78;;;2.78;;
31095;SDS011;17749;51.962;8.560;2022-10-17T10:15:37;7.80;;;3.47;;
31095;SDS011;17749;51.962;8.560;2022-10-17T10:18:40;8.32;;;3.90;;
31095;SDS011;17749;51.962;8.560;2022-10-17T10:21:02;7.68;;;3.50;;
31095;SDS011;17749;51.962;8.560;2022-10-17T10:23:30;8.63;;;4.43;;
31095;SDS011;17749;51.962;8.560;2022-10-17T10:25:57;5.93;;;4.43;;
31095;SDS011;17749;51.962;8.560;2022-10-17T10:28:28;8.82;;;3.83;;
31095;SDS011;17749;51.962;8.560;2022-10-17T10:30:58;7.88;;;3.92;;
31095;SDS011;17749;51.962;8.560;2022-10-17T10:33:28;11.65;;;5.00;;
31095;SDS011;17749;51.962;8.560;2022-10-17T10:35:58;8.80;;;4.45;;
31095;SDS011;17749;51.962;8.560;2022-10-17T10:38:28;6.97;;;3.53;;
31095;SDS011;17749;51.962;8.560;2022-10-17T10:41:01;9.90;;;4.32;;
31095;SDS011;17749;51.962;8.560;2022-10-17T10:43:41;11.13;;;4.13;;
31095;SDS011;17749;51.962;8.560;2022-10-17T10:46:20;7.88;;;4.25;;
31095;SDS011;17749;51.962;8.560;2022-10-17T10:48:56;9.33;;;3.97;;
31095;SDS011;17749;51.962;8.560;2022-10-17T10:51:33;8.38;;;3.92;;
31095;SDS011;17749;51.962;8.560;2022-10-17T10:56:48;5.82;;;3.90;;
31095;SDS011;17749;51.962;8.560;2022-10-17T11:01:47;4.78;;;3.55;;
31095;SDS011;17749;51.962;8.560;2022-10-17T11:07:19;9.95;;;4.45;;
31095;SDS011;17749;51.962;8.560;2022-10-17T11:10:19;14.27;;;4.65;;
31095;SDS011;17749;51.962;8.560;2022-10-17T11:18:27;6.95;;;3.78;;
31095;SDS011;17749;51.962;8.560;2022-10-17T11:21:19;10.63;;;3.72;;
31095;SDS011;17749;51.962;8.560;2022-10-17T11:24:20;5.78;;;3.80;;
31095;SDS011;17749;51.962;8.560;2022-10-17T11:26:54;8.75;;;3.65;;
31095;SDS011;17749;51.962;8.560;2022-10-17T11:29:32;7.97;;;4.30;;
31095;SDS011;17749;51.962;8.560;2022-10-17T11:32:05;6.32;;;3.50;;
31095;SDS011;17749;51.962;8.560;2022-10-17T11:34:43;7.35;;;4.03;;
31095;SDS011;17749;51.962;8.560;2022-10-17T11:37:15;6.28;;;4.40;;
31095;SDS011;17749;51.962;8.560;2022-10-17T11:39:49;9.48;;;4.20;;
31095;SDS011;17749;51.962;8.560;2022-10-17T11:42:21;12.10;;;4.32;;
31095;SDS011;17749;51.962;8.560;2022-10-17T11:44:55;10.07;;;4.50;;
31095;SDS011;17749;51.962;8.560;2022-10-17T11:47:41;7.40;;;4.05;;
31095;SDS011;17749;51.962;8.560;2022-10-17T11:50:15;6.97;;;4.07;;
31095;SDS011;17749;51.962;8.560;2022-10-17T11:53:08;7.50;;;4.25;;
31095;SDS011;17749;51.962;8.560;2022-10-17T11:55:39;7.35;;;4.10;;
31095;SDS011;17749;51.962;8.560;2022-10-17T12:12:04;10.02;;;4.18;;
31095;SDS011;17749;51.962;8.560;2022-10-17T12:25:35;6.22;;;3.90;;
31095;SDS011;17749;51.962;8.560;2022-10-17T12:30:56;12.30;;;4.38;;
31095;SDS011;17749;51.962;8.560;2022-10-17T12:36:39;7.80;;;4.40;;
31095;SDS011;17749;51.962;8.560;2022-10-17T12:38:48;7.90;;;4.35;;
31095;SDS011;17749;51.962;8.560;2022-10-17T12:41:51;9.07;;;4.28;;
31095;SDS011;17749;51.962;8.560;2022-10-17T12:52:24;11.40;;;4.55;;
31095;SDS011;17749;51.962;8.560;2022-10-17T12:57:49;8.68;;;4.40;;
31095;SDS011;17749;51.962;8.560;2022-10-17T13:03:50;12.95;;;5.15;;
31095;SDS011;17749;51.962;8.560;2022-10-17T13:06:22;7.47;;;4.40;;
31095;SDS011;17749;51.962;8.560;2022-10-17T13:08:58;8.85;;;4.75;;
31095;SDS011;17749;51.962;8.560;2022-10-17T13:11:30;12.20;;;4.53;;
31095;SDS011;17749;51.962;8.560;2022-10-17T13:14:01;10.27;;;4.78;;
31095;SDS011;17749;51.962;8.560;2022-10-17T13:16:36;9.13;;;5.05;;
31095;SDS011;17749;51.962;8.560;2022-10-17T13:19:16;10.57;;;4.57;;
31095;SDS011;17749;51.962;8.560;2022-10-17T13:21:48;10.55;;;4.95;;
31095;SDS011;17749;51.962;8.560;2022-10-17T13:24:22;7.22;;;5.22;;
31095;SDS011;17749;51.962;8.560;2022-10-17T13:26:52;11.90;;;4.70;;
31095;SDS011;17749;51.962;8.560;2022-10-17T13:29:19;7.20;;;4.07;;
31095;SDS011;17749;51.962;8.560;2022-10-17T13:31:51;9.52;;;5.00;;
31095;SDS011;17749;51.962;8.560;2022-10-17T13:34:23;6.45;;;4.13;;
31095;SDS011;17749;51.962;8.560;2022-10-17T13:36:52;8.95;;;4.18;;
31095;SDS011;17749;51.962;8.560;2022-10-17T13:39:22;9.45;;;4.32;;
31095;SDS011;17749;51.962;8.560;2022-10-17T13:42:29;10.55;;;4.20;;
31095;SDS011;17749;51.962;8.560;2022-10-17T13:45:03;8.38;;;4.00;;
31095;SDS011;17749;51.962;8.560;2022-10-17T13:47:39;8.70;;;4.47;;
31095;SDS011;17749;51.962;8.560;2022-10-17T13:50:06;5.32;;;3.78;;
31095;SDS011;17749;51.962;8.560;2022-10-17T13:58:44;9.98;;;4.50;;
31095;SDS011;17749;51.962;8.560;2022-10-17T14:01:32;7.27;;;4.13;;
31095;SDS011;17749;51.962;8.560;2022-10-17T14:03:59;6.30;;;4.28;;
31095;SDS011;17749;51.962;8.560;2022-10-17T14:06:40;13.25;;;6.30;;
31095;SDS011;17749;51.962;8.560;2022-10-17T14:09:24;15.55;;;7.43;;
31095;SDS011;17749;51.962;8.560;2022-10-17T14:14:24;11.65;;;4.32;;
31095;SDS011;17749;51.962;8.560;2022-10-17T14:16:52;12.18;;;4.78;;
31095;SDS011;17749;51.962;8.560;2022-10-17T14:19:24;8.52;;;4.95;;
31095;SDS011;17749;51.962;8.560;2022-10-17T14:21:54;9.52;;;4.57;;
31095;SDS011;17749;51.962;8.560;2022-10-17T14:26:50;11.07;;;4.95;;
31095;SDS011;17749;51.962;8.560;2022-10-17T14:29:23;9.10;;;5.53;;
31095;SDS011;17749;51.962;8.560;2022-10-17T14:31:56;9.30;;;5.20;;
31095;SDS011;17749;51.962;8.560;2022-10-17T14:34:30;11.43;;;5.03;;
31095;SDS011;17749;51.962;8.560;2022-10-17T14:36:59;9.27;;;4.63;;
31095;SDS011;17749;51.962;8.560;2022-10-17T14:39:26;10.60;;;4.65;;
31095;SDS011;17749;51.962;8.560;2022-10-17T14:41:55;9.25;;;4.68;;
31095;SDS011;17749;51.962;8.560;2022-10-17T14:44:31;8.43;;;4.88;;
31095;SDS011;17749;51.962;8.560;2022-10-17T14:47:01;9.60;;;4.65;;
31095;SDS011;17749;51.962;8.560;2022-10-17T14:49:50;9.57;;;5.55;;
31095;SDS011;17749;51.962;8.560;2022-10-17T14:52:29;16.40;;;5.15;;
31095;SDS011;17749;51.962;8.560;2022-10-17T14:54:58;12.73;;;5.38;;
31095;SDS011;17749;51.962;8.560;2022-10-17T14:57:44;10.23;;;4.57;;
31095;SDS011;17749;51.962;8.560;2022-10-17T15:00:12;10.25;;;4.65;;
31095;SDS011;17749;51.962;8.560;2022-10-17T15:02:40;9.35;;;5.07;;
31095;SDS011;17749;51.962;8.560;2022-10-17T15:05:07;7.80;;;4.38;;
31095;SDS011;17749;51.962;8.560;2022-10-17T15:07:38;8.73;;;5.18;;
31095;SDS011;17749;51.962;8.560;2022-10-17T15:10:08;9.63;;;4.82;;
31095;SDS011;17749;51.962;8.560;2022-10-17T15:12:48;9.48;;;4.97;;
31095;SDS011;17749;51.962;8.560;2022-10-17T15:15:30;8.75;;;4.95;;
31095;SDS011;17749;51.962;8.560;2022-10-17T15:17:57;8.63;;;4.85;;
31095;SDS011;17749;51.962;8.560;2022-10-17T15:20:25;20.98;;;5.97;;
31095;SDS011;17749;51.962;8.560;2022-10-17T15:22:53;7.18;;;4.60;;
31095;SDS011;17749;51.962;8.560;2022-10-17T15:25:20;10.27;;;4.45;;
31095;SDS011;17749;51.962;8.560;2022-10-17T15:30:21;14.45;;;6.55;;
31095;SDS011;17749;51.962;8.560;2022-10-17T15:32:52;295.27;;;25.33;;
31095;SDS011;17749;51.962;8.560;2022-10-17T15:35:19;157.63;;;17.00;;
31095;SDS011;17749;51.962;8.560;2022-10-17T15:37:47;157.75;;;26.15;;
31095;SDS011;17749;51.962;8.560;2022-10-17T15:40:16;162.90;;;24.75;;
31095;SDS011;17749;51.962;8.560;2022-10-17T15:42:45;39.85;;;14.30;;
31095;SDS011;17749;51.962;8.560;2022-10-17T15:45:13;35.83;;;10.27;;
31095;SDS011;17749;51.962;8.560;2022-10-17T15:47:42;10.18;;;8.23;;
31095;SDS011;17749;51.962;8.560;2022-10-17T15:50:15;13.43;;;5.97;;
31095;SDS011;17749;51.962;8.560;2022-10-17T15:52:42;9.27;;;4.63;;
31095;SDS011;17749;51.962;8.560;2022-10-17T15:55:09;13.57;;;5.95;;
31095;SDS011;17749;51.962;8.560;2022-10-17T15:57:37;13.23;;;7.05;;
31095;SDS011;17749;51.962;8.560;2022-10-17T16:00:09;8.10;;;6.05;;
31095;SDS011;17749;51.962;8.560;2022-10-17T16:02:42;8.75;;;4.45;;
31095;SDS011;17749;51.962;8.560;2022-10-17T16:05:17;11.73;;;5.10;;
31095;SDS011;17749;51.962;8.560;2022-10-17T16:07:48;12.73;;;5.32;;
31095;SDS011;17749;51.962;8.560;2022-10-17T16:10:16;4.85;;;4.10;;
31095;SDS011;17749;51.962;8.560;2022-10-17T16:12:43;11.60;;;5.50;;
31095;SDS011;17749;51.962;8.560;2022-10-17T16:15:12;9.18;;;4.72;;
31095;SDS011;17749;51.962;8.560;2022-10-17T16:17:40;12.18;;;5.20;;
31095;SDS011;17749;51.962;8.560;2022-10-17T16:20:07;9.90;;;5.30;;
31095;SDS011;17749;51.962;8.560;2022-10-17T16:22:34;10.38;;;5.60;;
31095;SDS011;17749;51.962;8.560;2022-10-17T16:25:07;9.38;;;4.88;;
31095;SDS011;17749;51.962;8.560;2022-10-17T16:27:45;7.27;;;4.80;;
31095;SDS011;17749;51.962;8.560;2022-10-17T16:30:13;10.35;;;5.00;;
31095;SDS011;17749;51.962;8.560;2022-10-17T16:32:41;9.68;;;5.22;;
31095;SDS011;17749;51.962;8.560;2022-10-17T16:35:08;6.30;;;4.43;;
31095;SDS011;17749;51.962;8.560;2022-10-17T16:37:41;9.10;;;4.35;;
31095;SDS011;17749;51.962;8.560;2022-10-17T16:40:08;11.07;;;5.13;;
31095;SDS011;17749;51.962;8.560;2022-10-17T16:42:36;11.15;;;5.40;;
31095;SDS011;17749;51.962;8.560;2022-10-17T16:45:03;9.68;;;4.72;;
31095;SDS011;17749;51.962;8.560;2022-10-17T16:47:30;10.23;;;5.03;;
31095;SDS011;17749;51.962;8.560;2022-10-17T16:49:57;7.38;;;5.45;;
31095;SDS011;17749;51.962;8.560;2022-10-17T16:52:24;10.82;;;5.95;;
31095;SDS011;17749;51.962;8.560;2022-10-17T16:54:51;6.95;;;5.15;;
31095;SDS011;17749;51.962;8.560;2022-10-17T16:57:18;14.43;;;5.50;;
31095;SDS011;17749;51.962;8.560;2022-10-17T16:59:45;10.60;;;4.93;;
31095;SDS011;17749;51.962;8.560;2022-10-17T17:02:12;9.57;;;5.68;;
31095;SDS011;17749;51.962;8.560;2022-10-17T17:04:45;7.05;;;5.40;;
31095;SDS011;17749;51.962;8.560;2022-10-17T17:07:15;11.77;;;5.43;;
31095;SDS011;17749;51.962;8.560;2022-10-17T17:09:44;10.20;;;5.90;;
31095;SDS011;17749;51.962;8.560;2022-10-17T17:12:11;8.60;;;4.50;;
31095;SDS011;17749;51.962;8.560;2022-10-17T17:14:38;7.30;;;5.65;;
31095;SDS011;17749;51.962;8.560;2022-10-17T17:17:05;11.65;;;5.97;;
31095;SDS011;17749;51.962;8.560;2022-10-17T17:19:40;14.77;;;5.40;;
31095;SDS011;17749;51.962;8.560;2022-10-17T17:22:07;12.55;;;5.40;;
31095;SDS011;17749;51.962;8.560;2022-10-17T17:24:34;13.00;;;6.30;;
31095;SDS011;17749;51.962;8.560;2022-10-17T17:27:01;11.68;;;5.97;;
31095;SDS011;17749;51.962;8.560;2022-10-17T17:29:28;10.77;;;6.03;;
31095;SDS011;17749;51.962;8.560;2022-10-17T17:31:55;9.32;;;5.68;;
31095;SDS011;17749;51.962;8.560;2022-10-17T17:34:22;8.75;;;6.25;;
31095;SDS011;17749;51.962;8.560;2022-10-17T17:36:49;11.02;;;5.93;;
31095;SDS011;17749;51.962;8.560;2022-10-17T17:39:16;11.57;;;6.90;;
31095;SDS011;17749;51.962;8.560;2022-10-17T17:41:43;15.48;;;7.20;;
31095;SDS011;17749;51.962;8.560;2022-10-17T17:44:11;9.32;;;7.13;;
31095;SDS011;17749;51.962;8.560;2022-10-17T17:46:42;11.65;;;7.50;;
31095;SDS011;17749;51.962;8.560;2022-10-17T17:49:10;11.63;;;7.63;;
31095;SDS011;17749;51.962;8.560;2022-10-17T17:51:38;13.57;;;7.65;;
31095;SDS011;17749;51.962;8.560;2022-10-17T17:54:07;12.73;;;8.00;;
31095;SDS011;17749;51.962;8.560;2022-10-17T17:56:37;11.15;;;7.60;;
31095;SDS011;17749;51.962;8.560;2022-10-17T17:59:04;10.50;;;7.80;;
31095;SDS011;17749;51.962;8.560;2022-10-17T18:01:32;11.68;;;7.53;;
31095;SDS011;17749;51.962;8.560;2022-10-17T18:04:04;9.75;;;6.85;;
31095;SDS011;17749;51.962;8.560;2022-10-17T18:06:34;11.52;;;7.47;;
31095;SDS011;17749;51.962;8.560;2022-10-17T18:09:03;10.73;;;7.40;;
31095;SDS011;17749;51.962;8.560;2022-10-17T18:11:31;12.25;;;7.18;;
31095;SDS011;17749;51.962;8.560;2022-10-17T18:13:59;12.07;;;7.78;;
31095;SDS011;17749;51.962;8.560;2022-10-17T18:16:29;15.85;;;8.85;;
31095;SDS011;17749;51.962;8.560;2022-10-17T18:18:57;14.02;;;8.75;;
31095;SDS011;17749;51.962;8.560;2022-10-17T18:21:31;14.35;;;10.57;;
31095;SDS011;17749;51.962;8.560;2022-10-17T18:23:58;14.95;;;8.32;;
31095;SDS011;17749;51.962;8.560;2022-10-17T18:26:26;13.27;;;9.00;;
31095;SDS011;17749;51.962;8.560;2022-10-17T18:28:53;12.88;;;8.20;;
31095;SDS011;17749;51.962;8.560;2022-10-17T18:31:21;11.70;;;7.63;;
31095;SDS011;17749;51.962;8.560;2022-10-17T18:34:12;11.93;;;8.48;;
31095;SDS011;17749;51.962;8.560;2022-10-17T18:36:38;17.00;;;8.43;;
31095;SDS011;17749;51.962;8.560;2022-10-17T18:39:05;12.63;;;8.70;;
31095;SDS011;17749;51.962;8.560;2022-10-17T18:41:32;11.25;;;7.88;;
31095;SDS011;17749;51.962;8.560;2022-10-17T18:44:00;12.80;;;8.43;;
31095;SDS011;17749;51.962;8.560;2022-10-17T18:46:32;14.25;;;8.32;;
31095;SDS011;17749;51.962;8.560;2022-10-17T18:49:11;10.90;;;8.38;;
31095;SDS011;17749;51.962;8.560;2022-10-17T18:51:44;18.60;;;9.13;;
31095;SDS011;17749;51.962;8.560;2022-10-17T18:54:13;15.10;;;8.52;;
31095;SDS011;17749;51.962;8.560;2022-10-17T18:56:42;12.65;;;9.02;;
31095;SDS011;17749;51.962;8.560;2022-10-17T18:59:10;15.15;;;9.60;;
31095;SDS011;17749;51.962;8.560;2022-10-17T19:01:38;14.20;;;9.25;;
31095;SDS011;17749;51.962;8.560;2022-10-17T19:04:05;15.10;;;8.68;;
31095;SDS011;17749;51.962;8.560;2022-10-17T19:06:32;15.20;;;10.20;;
31095;SDS011;17749;51.962;8.560;2022-10-17T19:09:02;14.38;;;9.05;;
31095;SDS011;17749;51.962;8.560;2022-10-17T19:11:31;12.75;;;9.05;;
31095;SDS011;17749;51.962;8.560;2022-10-17T19:16:30;15.90;;;10.07;;
31095;SDS011;17749;51.962;8.560;2022-10-17T19:19:01;14.35;;;10.00;;
31095;SDS011;17749;51.962;8.560;2022-10-17T19:21:35;15.43;;;10.23;;
31095;SDS011;17749;51.962;8.560;2022-10-17T19:24:03;17.48;;;10.52;;
31095;SDS011;17749;51.962;8.560;2022-10-17T19:26:33;15.88;;;10.70;;
31095;SDS011;17749;51.962;8.560;2022-10-17T19:29:02;17.00;;;10.70;;
31095;SDS011;17749;51.962;8.560;2022-10-17T19:31:30;13.98;;;10.27;;
31095;SDS011;17749;51.962;8.560;2022-10-17T19:33:58;14.77;;;10.65;;
31095;SDS011;17749;51.962;8.560;2022-10-17T19:36:27;13.88;;;10.02;;
31095;SDS011;17749;51.962;8.560;2022-10-17T19:39:04;14.00;;;10.57;;
31095;SDS011;17749;51.962;8.560;2022-10-17T19:41:33;17.25;;;10.85;;
31095;SDS011;17749;51.962;8.560;2022-10-17T19:44:01;19.50;;;10.88;;
31095;SDS011;17749;51.962;8.560;2022-10-17T19:46:29;16.98;;;11.07;;
31095;SDS011;17749;51.962;8.560;2022-10-17T19:48:59;18.80;;;11.55;;
31095;SDS011;17749;51.962;8.560;2022-10-17T19:51:27;13.23;;;10.63;;
31095;SDS011;17749;51.962;8.560;2022-10-17T19:53:55;17.17;;;10.93;;
31095;SDS011;17749;51.962;8.560;2022-10-17T19:56:26;17.60;;;11.82;;
31095;SDS011;17749;51.962;8.560;2022-10-17T19:58:54;16.15;;;10.85;;
31095;SDS011;17749;51.962;8.560;2022-10-17T20:01:23;17.23;;;12.32;;
31095;SDS011;17749;51.962;8.560;2022-10-17T20:03:51;15.55;;;11.45;;
31095;SDS011;17749;51.962;8.560;2022-10-17T20:06:19;15.15;;;11.45;;
31095;SDS011;17749;51.962;8.560;2022-10-17T20:08:47;19.00;;;11.85;;
31095;SDS011;17749;51.962;8.560;2022-10-17T20:11:15;17.45;;;11.75;;
31095;SDS011;17749;51.962;8.560;2022-10-17T20:13:44;19.13;;;12.48;;
31095;SDS011;17749;51.962;8.560;2022-10-17T20:16:33;16.40;;;12.02;;
31095;SDS011;17749;51.962;8.560;2022-10-17T20:19:01;17.45;;;12.60;;
31095;SDS011;17749;51.962;8.560;2022-10-17T20:21:33;17.08;;;12.80;;
31095;SDS011;17749;51.962;8.560;2022-10-17T20:24:02;15.43;;;12.40;;
31095;SDS011;17749;51.962;8.560;2022-10-17T20:26:30;21.27;;;13.38;;
31095;SDS011;17749;51.962;8.560;2022-10-17T20:29:04;20.58;;;13.32;;
